sensor_id;sensor_type;location;lat;lon;timestamp;temperature;humidity
39219;DHT22;24934;52.752;6.964;2023-03-03T00:00:30;1.50;99.90
39219;DHT22;24934;52.752;6.964;2023-03-03T00:02:58;1.50;99.90
39219;DHT22;24934;52.752;6.964;2023-03-03T00:05:25;1.50;99.90
39219;DHT22;24934;52.752;6.964;2023-03-03T00:07:51;1.50;99.90
39219;DHT22;24934;52.752;6.964;2023-03-03T00:10:17;1.50;99.90
39219;DHT22;24934;52.752;6.964;2023-03-03T00:12:46;1.50;99.90
39219;DHT22;24934;52.752;6.964;2023-03-03T00:15:21;1.40;99.90
39219;DHT22;24934;52.752;6.964;2023-03-03T00:17:47;1.40;99.90
39219;DHT22;24934;52.752;6.964;2023-03-03T00:20:29;1.40;99.90
39219;DHT22;24934;52.752;6.964;2023-03-03T00:25:49;1.40;99.90
39219;DHT22;24934;52.752;6.964;2023-03-03T00:30:44;1.40;99.90
39219;DHT22;24934;52.752;6.964;2023-03-03T00:33:24;1.40;99.90
39219;DHT22;24934;52.752;6.964;2023-03-03T00:38:53;1.40;99.90
39219;DHT22;24934;52.752;6.964;2023-03-03T00:41:25;1.50;99.90
39219;DHT22;24934;52.752;6.964;2023-03-03T00:43:52;1.40;99.90
39219;DHT22;24934;52.752;6.964;2023-03-03T00:46:22;1.40;99.90
39219;DHT22;24934;52.752;6.964;2023-03-03T00:48:49;1.40;99.90
39219;DHT22;24934;52.752;6.964;2023-03-03T00:53:47;1.40;99.90
39219;DHT22;24934;52.752;6.964;2023-03-03T00:56:13;1.40;99.90
39219;DHT22;24934;52.752;6.964;2023-03-03T00:58:39;1.40;99.90
39219;DHT22;24934;52.752;6.964;2023-03-03T01:01:07;1.40;99.90
39219;DHT22;24934;52.752;6.964;2023-03-03T01:03:33;1.40;99.90
39219;DHT22;24934;52.752;6.964;2023-03-03T01:06:01;1.40;99.90
39219;DHT22;24934;52.752;6.964;2023-03-03T01:08:27;1.30;99.90
39219;DHT22;24934;52.752;6.964;2023-03-03T01:10:56;1.40;99.90
39219;DHT22;24934;52.752;6.964;2023-03-03T01:13:27;1.30;99.90
39219;DHT22;24934;52.752;6.964;2023-03-03T01:15:54;1.30;99.90
39219;DHT22;24934;52.752;6.964;2023-03-03T01:18:28;1.30;99.90
39219;DHT22;24934;52.752;6.964;2023-03-03T01:20:54;1.30;99.90
39219;DHT22;24934;52.752;6.964;2023-03-03T01:23:19;1.30;99.90
39219;DHT22;24934;52.752;6.964;2023-03-03T01:25:45;1.30;99.90
39219;DHT22;24934;52.752;6.964;2023-03-03T01:28:10;1.30;99.90
39219;DHT22;24934;52.752;6.964;2023-03-03T01:30:36;1.30;99.90
39219;DHT22;24934;52.752;6.964;2023-03-03T01:33:02;1.30;99.90
39219;DHT22;24934;52.752;6.964;2023-03-03T01:35:31;1.30;99.90
39219;DHT22;24934;52.752;6.964;2023-03-03T01:37:57;1.30;99.90
39219;DHT22;24934;52.752;6.964;2023-03-03T01:40:26;1.30;99.90
39219;DHT22;24934;52.752;6.964;2023-03-03T01:42:52;1.30;99.90
39219;DHT22;24934;52.752;6.964;2023-03-03T01:45:20;1.30;99.90
39219;DHT22;24934;52.752;6.964;2023-03-03T01:48:09;1.30;99.90
39219;DHT22;24934;52.752;6.964;2023-03-03T01:55:54;1.30;99.90
39219;DHT22;24934;52.752;6.964;2023-03-03T01:58:27;1.30;99.90
39219;DHT22;24934;52.752;6.964;2023-03-03T02:00:56;1.20;99.90
39219;DHT22;24934;52.752;6.964;2023-03-03T02:03:23;1.20;99.90
39219;DHT22;24934;52.752;6.964;2023-03-03T02:05:51;1.30;99.90
39219;DHT22;24934;52.752;6.964;2023-03-03T02:08:22;1.30;99.90
39219;DHT22;24934;52.752;6.964;2023-03-03T02:10:50;1.30;99.90
39219;DHT22;24934;52.752;6.964;2023-03-03T02:13:17;1.30;99.90
39219;DHT22;24934;52.752;6.964;2023-03-03T02:15:42;1.30;99.90
39219;DHT22;24934;52.752;6.964;2023-03-03T02:18:11;1.30;99.90
39219;DHT22;24934;52.752;6.964;2023-03-03T02:23:32;1.30;99.90
39219;DHT22;24934;52.752;6.964;2023-03-03T02:26:23;1.30;99.90
39219;DHT22;24934;52.752;6.964;2023-03-03T02:28:52;1.30;99.90
39219;DHT22;24934;52.752;6.964;2023-03-03T02:31:21;1.30;99.90
39219;DHT22;24934;52.752;6.964;2023-03-03T02:33:51;1.30;99.90
39219;DHT22;24934;52.752;6.964;2023-03-03T02:36:26;1.30;99.90
39219;DHT22;24934;52.752;6.964;2023-03-03T02:44:15;1.20;99.90
39219;DHT22;24934;52.752;6.964;2023-03-03T02:46:44;1.30;99.90
39219;DHT22;24934;52.752;6.964;2023-03-03T02:49:12;1.20;99.90
39219;DHT22;24934;52.752;6.964;2023-03-03T02:51:39;1.20;99.90
39219;DHT22;24934;52.752;6.964;2023-03-03T02:54:06;1.20;99.90
39219;DHT22;24934;52.752;6.964;2023-03-03T02:56:32;1.30;99.90
39219;DHT22;24934;52.752;6.964;2023-03-03T02:58:58;1.20;99.90
39219;DHT22;24934;52.752;6.964;2023-03-03T03:01:24;1.20;99.90
39219;DHT22;24934;52.752;6.964;2023-03-03T03:03:50;1.20;99.90
39219;DHT22;24934;52.752;6.964;2023-03-03T03:06:15;1.30;99.90
39219;DHT22;24934;52.752;6.964;2023-03-03T03:08:41;1.20;99.90
39219;DHT22;24934;52.752;6.964;2023-03-03T03:11:10;1.20;99.90
39219;DHT22;24934;52.752;6.964;2023-03-03T03:13:35;1.20;99.90
39219;DHT22;24934;52.752;6.964;2023-03-03T03:16:01;1.20;99.90
39219;DHT22;24934;52.752;6.964;2023-03-03T03:18:27;1.30;99.90
39219;DHT22;24934;52.752;6.964;2023-03-03T03:20:52;1.20;99.90
39219;DHT22;24934;52.752;6.964;2023-03-03T03:23:18;1.20;99.90
39219;DHT22;24934;52.752;6.964;2023-03-03T03:25:46;1.20;99.90
39219;DHT22;24934;52.752;6.964;2023-03-03T03:28:14;1.20;99.90
39219;DHT22;24934;52.752;6.964;2023-03-03T03:30:43;1.20;99.90
39219;DHT22;24934;52.752;6.964;2023-03-03T03:33:10;1.20;99.90
39219;DHT22;24934;52.752;6.964;2023-03-03T03:35:36;1.20;99.90
39219;DHT22;24934;52.752;6.964;2023-03-03T03:38:03;1.20;99.90
39219;DHT22;24934;52.752;6.964;2023-03-03T03:40:28;1.20;99.90
39219;DHT22;24934;52.752;6.964;2023-03-03T03:42:54;1.20;99.90
39219;DHT22;24934;52.752;6.964;2023-03-03T03:45:20;1.20;99.90
39219;DHT22;24934;52.752;6.964;2023-03-03T03:47:46;1.20;99.90
39219;DHT22;24934;52.752;6.964;2023-03-03T03:50:12;1.20;99.90
39219;DHT22;24934;52.752;6.964;2023-03-03T03:52:38;1.10;99.90
39219;DHT22;24934;52.752;6.964;2023-03-03T03:55:04;1.20;99.90
39219;DHT22;24934;52.752;6.964;2023-03-03T03:57:30;1.20;99.90
39219;DHT22;24934;52.752;6.964;2023-03-03T03:59:56;1.20;99.90
39219;DHT22;24934;52.752;6.964;2023-03-03T04:02:21;1.20;99.90
39219;DHT22;24934;52.752;6.964;2023-03-03T04:04:47;1.20;99.90
39219;DHT22;24934;52.752;6.964;2023-03-03T04:07:13;1.10;99.90
39219;DHT22;24934;52.752;6.964;2023-03-03T04:09:41;1.20;99.90
39219;DHT22;24934;52.752;6.964;2023-03-03T04:12:07;1.20;99.90
39219;DHT22;24934;52.752;6.964;2023-03-03T04:14:35;1.10;99.90
39219;DHT22;24934;52.752;6.964;2023-03-03T04:17:01;1.10;99.90
39219;DHT22;24934;52.752;6.964;2023-03-03T04:19:26;1.20;99.90
39219;DHT22;24934;52.752;6.964;2023-03-03T04:21:52;1.20;99.90
39219;DHT22;24934;52.752;6.964;2023-03-03T04:24:18;1.20;99.90
39219;DHT22;24934;52.752;6.964;2023-03-03T04:26:44;1.20;99.90
39219;DHT22;24934;52.752;6.964;2023-03-03T04:29:09;1.20;99.90
39219;DHT22;24934;52.752;6.964;2023-03-03T04:31:35;1.20;99.90
39219;DHT22;24934;52.752;6.964;2023-03-03T04:34:01;1.10;99.90
39219;DHT22;24934;52.752;6.964;2023-03-03T04:36:26;1.10;99.90
39219;DHT22;24934;52.752;6.964;2023-03-03T04:38:52;1.10;99.90
39219;DHT22;24934;52.752;6.964;2023-03-03T04:41:18;1.20;99.90
39219;DHT22;24934;52.752;6.964;2023-03-03T04:43:43;1.20;99.90
39219;DHT22;24934;52.752;6.964;2023-03-03T04:46:09;1.20;99.90
39219;DHT22;24934;52.752;6.964;2023-03-03T04:48:34;1.10;99.90
39219;DHT22;24934;52.752;6.964;2023-03-03T04:51:00;1.10;99.90
39219;DHT22;24934;52.752;6.964;2023-03-03T04:53:26;1.20;99.90
39219;DHT22;24934;52.752;6.964;2023-03-03T04:55:52;1.20;99.90
39219;DHT22;24934;52.752;6.964;2023-03-03T04:58:21;1.20;99.90
39219;DHT22;24934;52.752;6.964;2023-03-03T05:00:52;1.20;99.90
39219;DHT22;24934;52.752;6.964;2023-03-03T05:03:20;1.20;99.90
39219;DHT22;24934;52.752;6.964;2023-03-03T05:05:46;1.20;99.90
39219;DHT22;24934;52.752;6.964;2023-03-03T05:08:13;1.20;99.90
39219;DHT22;24934;52.752;6.964;2023-03-03T05:10:38;1.20;99.90
39219;DHT22;24934;52.752;6.964;2023-03-03T05:13:04;1.20;99.90
39219;DHT22;24934;52.752;6.964;2023-03-03T05:15:31;1.20;99.90
39219;DHT22;24934;52.752;6.964;2023-03-03T05:17:57;1.10;99.90
39219;DHT22;24934;52.752;6.964;2023-03-03T05:20:23;1.20;99.90
39219;DHT22;24934;52.752;6.964;2023-03-03T05:22:49;1.20;99.90
39219;DHT22;24934;52.752;6.964;2023-03-03T05:25:14;1.20;99.90
39219;DHT22;24934;52.752;6.964;2023-03-03T05:27:40;1.20;99.90
39219;DHT22;24934;52.752;6.964;2023-03-03T05:30:07;1.20;99.90
39219;DHT22;24934;52.752;6.964;2023-03-03T05:32:36;1.20;99.90
39219;DHT22;24934;52.752;6.964;2023-03-03T05:35:03;1.20;99.90
39219;DHT22;24934;52.752;6.964;2023-03-03T05:37:29;1.20;99.90
39219;DHT22;24934;52.752;6.964;2023-03-03T05:39:55;1.20;99.90
39219;DHT22;24934;52.752;6.964;2023-03-03T05:42:20;1.20;99.90
39219;DHT22;24934;52.752;6.964;2023-03-03T05:44:49;1.20;99.90
39219;DHT22;24934;52.752;6.964;2023-03-03T05:47:15;1.20;99.90
39219;DHT22;24934;52.752;6.964;2023-03-03T05:49:40;1.20;99.90
39219;DHT22;24934;52.752;6.964;2023-03-03T05:52:09;1.20;99.90
39219;DHT22;24934;52.752;6.964;2023-03-03T05:54:35;1.20;99.90
39219;DHT22;24934;52.752;6.964;2023-03-03T05:57:00;1.20;99.90
39219;DHT22;24934;52.752;6.964;2023-03-03T05:59:26;1.20;99.90
39219;DHT22;24934;52.752;6.964;2023-03-03T06:01:52;1.20;99.90
39219;DHT22;24934;52.752;6.964;2023-03-03T06:04:20;1.30;99.90
39219;DHT22;24934;52.752;6.964;2023-03-03T06:06:46;1.20;99.90
39219;DHT22;24934;52.752;6.964;2023-03-03T06:09:14;1.30;99.90
39219;DHT22;24934;52.752;6.964;2023-03-03T06:11:41;1.30;99.90
39219;DHT22;24934;52.752;6.964;2023-03-03T06:14:06;1.30;99.90
39219;DHT22;24934;52.752;6.964;2023-03-03T06:16:32;1.30;99.90
39219;DHT22;24934;52.752;6.964;2023-03-03T06:18:58;1.30;99.90
39219;DHT22;24934;52.752;6.964;2023-03-03T06:21:23;1.40;99.90
39219;DHT22;24934;52.752;6.964;2023-03-03T06:23:49;1.30;99.90
39219;DHT22;24934;52.752;6.964;2023-03-03T06:26:15;1.40;99.90
39219;DHT22;24934;52.752;6.964;2023-03-03T06:28:40;1.40;99.90
39219;DHT22;24934;52.752;6.964;2023-03-03T06:31:06;1.40;99.90
39219;DHT22;24934;52.752;6.964;2023-03-03T06:33:31;1.40;99.90
39219;DHT22;24934;52.752;6.964;2023-03-03T06:35:57;1.40;99.90
39219;DHT22;24934;52.752;6.964;2023-03-03T06:38:26;1.40;99.90
39219;DHT22;24934;52.752;6.964;2023-03-03T06:40:54;1.40;99.90
39219;DHT22;24934;52.752;6.964;2023-03-03T06:43:20;1.40;99.90
39219;DHT22;24934;52.752;6.964;2023-03-03T06:45:45;1.50;99.90
39219;DHT22;24934;52.752;6.964;2023-03-03T06:48:11;1.60;99.90
39219;DHT22;24934;52.752;6.964;2023-03-03T06:50:37;1.60;99.90
39219;DHT22;24934;52.752;6.964;2023-03-03T06:53:11;1.60;99.90
39219;DHT22;24934;52.752;6.964;2023-03-03T06:55:38;1.70;99.90
39219;DHT22;24934;52.752;6.964;2023-03-03T06:58:19;1.80;99.90
39219;DHT22;24934;52.752;6.964;2023-03-03T07:00:54;1.80;99.90
39219;DHT22;24934;52.752;6.964;2023-03-03T07:03:33;1.90;99.90
39219;DHT22;24934;52.752;6.964;2023-03-03T07:05:59;1.90;99.90
39219;DHT22;24934;52.752;6.964;2023-03-03T07:08:29;1.90;99.90
39219;DHT22;24934;52.752;6.964;2023-03-03T07:11:01;2.00;99.90
39219;DHT22;24934;52.752;6.964;2023-03-03T07:13:35;2.10;99.90
39219;DHT22;24934;52.752;6.964;2023-03-03T07:16:11;2.10;99.90
39219;DHT22;24934;52.752;6.964;2023-03-03T07:19:00;2.20;99.90
39219;DHT22;24934;52.752;6.964;2023-03-03T07:21:32;2.20;99.90
39219;DHT22;24934;52.752;6.964;2023-03-03T07:24:01;2.20;99.90
39219;DHT22;24934;52.752;6.964;2023-03-03T07:26:33;2.30;99.90
39219;DHT22;24934;52.752;6.964;2023-03-03T07:29:02;2.40;99.90
39219;DHT22;24934;52.752;6.964;2023-03-03T07:31:40;2.50;99.90
39219;DHT22;24934;52.752;6.964;2023-03-03T07:34:40;2.60;99.90
39219;DHT22;24934;52.752;6.964;2023-03-03T07:40:00;2.80;99.90
39219;DHT22;24934;52.752;6.964;2023-03-03T07:42:38;3.00;99.90
39219;DHT22;24934;52.752;6.964;2023-03-03T07:45:29;3.10;99.90
39219;DHT22;24934;52.752;6.964;2023-03-03T07:50:41;3.20;99.90
39219;DHT22;24934;52.752;6.964;2023-03-03T07:53:39;3.40;99.90
39219;DHT22;24934;52.752;6.964;2023-03-03T07:56:21;3.50;99.90
39219;DHT22;24934;52.752;6.964;2023-03-03T07:58:51;3.70;99.90
39219;DHT22;24934;52.752;6.964;2023-03-03T08:01:36;3.70;99.90
39219;DHT22;24934;52.752;6.964;2023-03-03T08:04:19;3.80;99.90
39219;DHT22;24934;52.752;6.964;2023-03-03T08:06:57;3.90;99.90
39219;DHT22;24934;52.752;6.964;2023-03-03T08:09:30;4.10;99.90
39219;DHT22;24934;52.752;6.964;2023-03-03T08:12:19;4.10;99.90
39219;DHT22;24934;52.752;6.964;2023-03-03T08:14:46;4.30;99.90
39219;DHT22;24934;52.752;6.964;2023-03-03T08:19:44;4.50;99.90
39219;DHT22;24934;52.752;6.964;2023-03-03T08:22:30;4.50;99.90
39219;DHT22;24934;52.752;6.964;2023-03-03T08:24:57;4.50;99.90
39219;DHT22;24934;52.752;6.964;2023-03-03T08:27:23;4.60;99.90
39219;DHT22;24934;52.752;6.964;2023-03-03T08:29:48;4.70;99.90
39219;DHT22;24934;52.752;6.964;2023-03-03T08:32:15;4.70;99.90
39219;DHT22;24934;52.752;6.964;2023-03-03T08:34:40;4.90;99.90
39219;DHT22;24934;52.752;6.964;2023-03-03T08:37:06;4.90;99.90
39219;DHT22;24934;52.752;6.964;2023-03-03T08:39:32;5.20;99.90
39219;DHT22;24934;52.752;6.964;2023-03-03T08:41:57;5.50;99.90
39219;DHT22;24934;52.752;6.964;2023-03-03T08:44:23;6.20;99.90
39219;DHT22;24934;52.752;6.964;2023-03-03T08:46:49;6.50;99.90
39219;DHT22;24934;52.752;6.964;2023-03-03T08:49:14;6.90;99.90
39219;DHT22;24934;52.752;6.964;2023-03-03T08:51:43;6.80;99.90
39219;DHT22;24934;52.752;6.964;2023-03-03T08:54:09;6.50;99.90
39219;DHT22;24934;52.752;6.964;2023-03-03T08:56:35;6.20;99.90
39219;DHT22;24934;52.752;6.964;2023-03-03T08:59:00;6.20;99.90
39219;DHT22;24934;52.752;6.964;2023-03-03T09:01:26;6.20;99.90
39219;DHT22;24934;52.752;6.964;2023-03-03T09:03:54;6.10;99.90
39219;DHT22;24934;52.752;6.964;2023-03-03T09:06:20;6.40;99.90
39219;DHT22;24934;52.752;6.964;2023-03-03T09:08:46;6.80;99.90
39219;DHT22;24934;52.752;6.964;2023-03-03T09:11:18;7.30;99.90
39219;DHT22;24934;52.752;6.964;2023-03-03T09:13:44;7.60;99.90
39219;DHT22;24934;52.752;6.964;2023-03-03T09:16:19;8.00;99.90
39219;DHT22;24934;52.752;6.964;2023-03-03T09:18:46;8.30;99.90
39219;DHT22;24934;52.752;6.964;2023-03-03T09:21:22;8.80;99.90
39219;DHT22;24934;52.752;6.964;2023-03-03T09:23:54;8.60;99.90
39219;DHT22;24934;52.752;6.964;2023-03-03T09:26:38;8.70;99.90
39219;DHT22;24934;52.752;6.964;2023-03-03T09:31:49;10.40;99.90
39219;DHT22;24934;52.752;6.964;2023-03-03T09:34:24;10.90;99.90
39219;DHT22;24934;52.752;6.964;2023-03-03T09:36:54;11.50;99.90
39219;DHT22;24934;52.752;6.964;2023-03-03T09:39:21;12.30;99.90
39219;DHT22;24934;52.752;6.964;2023-03-03T09:58:23;11.40;99.90
39219;DHT22;24934;52.752;6.964;2023-03-03T10:03:50;12.80;99.90
39219;DHT22;24934;52.752;6.964;2023-03-03T10:06:30;13.00;99.90
39219;DHT22;24934;52.752;6.964;2023-03-03T10:20:06;13.40;99.90
39219;DHT22;24934;52.752;6.964;2023-03-03T10:22:54;12.80;99.90
39219;DHT22;24934;52.752;6.964;2023-03-03T10:25:41;11.70;99.90
39219;DHT22;24934;52.752;6.964;2023-03-03T10:28:50;10.70;99.90
39219;DHT22;24934;52.752;6.964;2023-03-03T10:34:21;9.50;99.90
39219;DHT22;24934;52.752;6.964;2023-03-03T10:37:15;9.00;99.90
39219;DHT22;24934;52.752;6.964;2023-03-03T10:45:03;8.60;99.90
39219;DHT22;24934;52.752;6.964;2023-03-03T10:56:04;8.10;99.90
39219;DHT22;24934;52.752;6.964;2023-03-03T11:06:39;7.80;99.90
39219;DHT22;24934;52.752;6.964;2023-03-03T11:12:11;7.70;99.90
39219;DHT22;24934;52.752;6.964;2023-03-03T11:15:24;7.70;99.90
39219;DHT22;24934;52.752;6.964;2023-03-03T11:26:16;7.50;99.90
39219;DHT22;24934;52.752;6.964;2023-03-03T11:31:41;7.20;99.90
39219;DHT22;24934;52.752;6.964;2023-03-03T11:34:44;7.30;99.90
39219;DHT22;24934;52.752;6.964;2023-03-03T11:37:23;7.30;99.90
39219;DHT22;24934;52.752;6.964;2023-03-03T11:39:57;7.30;99.90
39219;DHT22;24934;52.752;6.964;2023-03-03T11:42:41;7.20;99.90
39219;DHT22;24934;52.752;6.964;2023-03-03T11:45:31;7.20;99.90
39219;DHT22;24934;52.752;6.964;2023-03-03T11:50:47;7.20;99.90
39219;DHT22;24934;52.752;6.964;2023-03-03T11:58:48;7.60;99.90
39219;DHT22;24934;52.752;6.964;2023-03-03T12:01:35;7.80;99.90
39219;DHT22;24934;52.752;6.964;2023-03-03T12:04:10;7.80;99.90
39219;DHT22;24934;52.752;6.964;2023-03-03T12:12:23;7.80;99.90
39219;DHT22;24934;52.752;6.964;2023-03-03T12:23:46;8.60;99.90
39219;DHT22;24934;52.752;6.964;2023-03-03T12:29:24;8.70;99.90
39219;DHT22;24934;52.752;6.964;2023-03-03T12:32:14;8.50;99.90
39219;DHT22;24934;52.752;6.964;2023-03-03T12:40:07;8.80;99.90
39219;DHT22;24934;52.752;6.964;2023-03-03T12:48:20;9.10;99.90
39219;DHT22;24934;52.752;6.964;2023-03-03T12:54:09;9.20;99.90
39219;DHT22;24934;52.752;6.964;2023-03-03T12:56:47;9.10;99.90
39219;DHT22;24934;52.752;6.964;2023-03-03T13:04:57;9.30;99.90
39219;DHT22;24934;52.752;6.964;2023-03-03T13:07:34;9.30;99.90
39219;DHT22;24934;52.752;6.964;2023-03-03T13:12:44;9.40;99.90
39219;DHT22;24934;52.752;6.964;2023-03-03T13:15:27;9.50;99.90
39219;DHT22;24934;52.752;6.964;2023-03-03T13:20:50;9.50;99.90
39219;DHT22;24934;52.752;6.964;2023-03-03T13:26:07;9.30;99.90
39219;DHT22;24934;52.752;6.964;2023-03-03T13:31:23;9.50;99.90
39219;DHT22;24934;52.752;6.964;2023-03-03T13:33:59;9.40;99.90
39219;DHT22;24934;52.752;6.964;2023-03-03T13:36:34;9.20;99.90
39219;DHT22;24934;52.752;6.964;2023-03-03T13:39:28;9.10;99.90
39219;DHT22;24934;52.752;6.964;2023-03-03T13:44:49;8.80;99.90
39219;DHT22;24934;52.752;6.964;2023-03-03T13:50:06;8.70;99.90
39219;DHT22;24934;52.752;6.964;2023-03-03T13:55:43;8.90;99.90
39219;DHT22;24934;52.752;6.964;2023-03-03T13:58:41;9.10;99.90
39219;DHT22;24934;52.752;6.964;2023-03-03T14:01:47;9.20;99.90
39219;DHT22;24934;52.752;6.964;2023-03-03T14:04:59;9.40;99.90
39219;DHT22;24934;52.752;6.964;2023-03-03T14:07:37;9.50;99.90
39219;DHT22;24934;52.752;6.964;2023-03-03T14:10:23;9.60;99.90
39219;DHT22;24934;52.752;6.964;2023-03-03T14:15:57;9.50;99.90
39219;DHT22;24934;52.752;6.964;2023-03-03T14:18:38;9.60;99.90
39219;DHT22;24934;52.752;6.964;2023-03-03T14:21:15;9.50;99.90
39219;DHT22;24934;52.752;6.964;2023-03-03T14:23:53;9.40;99.90
39219;DHT22;24934;52.752;6.964;2023-03-03T14:26:22;9.40;99.90
39219;DHT22;24934;52.752;6.964;2023-03-03T14:28:49;9.50;99.90
39219;DHT22;24934;52.752;6.964;2023-03-03T14:31:28;9.50;99.90
39219;DHT22;24934;52.752;6.964;2023-03-03T14:34:00;9.50;99.90
39219;DHT22;24934;52.752;6.964;2023-03-03T14:36:37;9.40;99.90
39219;DHT22;24934;52.752;6.964;2023-03-03T14:41:52;9.40;99.90
39219;DHT22;24934;52.752;6.964;2023-03-03T14:44:49;9.30;99.90
39219;DHT22;24934;52.752;6.964;2023-03-03T14:47:27;9.30;99.90
39219;DHT22;24934;52.752;6.964;2023-03-03T14:49:55;9.20;99.90
39219;DHT22;24934;52.752;6.964;2023-03-03T14:52:26;9.20;99.90
39219;DHT22;24934;52.752;6.964;2023-03-03T14:54:58;9.10;99.90
39219;DHT22;24934;52.752;6.964;2023-03-03T15:05:16;9.10;99.90
39219;DHT22;24934;52.752;6.964;2023-03-03T15:07:43;9.00;99.90
39219;DHT22;24934;52.752;6.964;2023-03-03T15:10:10;8.90;99.90
39219;DHT22;24934;52.752;6.964;2023-03-03T15:12:45;8.80;99.90
39219;DHT22;24934;52.752;6.964;2023-03-03T15:15:18;8.90;99.90
39219;DHT22;24934;52.752;6.964;2023-03-03T15:23:29;9.80;99.90
39219;DHT22;24934;52.752;6.964;2023-03-03T15:31:51;10.30;99.90
39219;DHT22;24934;52.752;6.964;2023-03-03T15:34:42;10.20;99.90
39219;DHT22;24934;52.752;6.964;2023-03-03T15:42:46;10.60;99.90
39219;DHT22;24934;52.752;6.964;2023-03-03T15:45:44;10.60;99.90
39219;DHT22;24934;52.752;6.964;2023-03-03T15:48:36;10.50;99.90
39219;DHT22;24934;52.752;6.964;2023-03-03T16:00:05;9.70;99.90
39219;DHT22;24934;52.752;6.964;2023-03-03T16:05:34;9.30;99.90
39219;DHT22;24934;52.752;6.964;2023-03-03T16:08:15;9.10;99.90
39219;DHT22;24934;52.752;6.964;2023-03-03T16:11:06;9.10;99.90
39219;DHT22;24934;52.752;6.964;2023-03-03T16:16:12;8.80;99.90
39219;DHT22;24934;52.752;6.964;2023-03-03T16:18:57;8.70;99.90
39219;DHT22;24934;52.752;6.964;2023-03-03T16:21:57;8.50;99.90
39219;DHT22;24934;52.752;6.964;2023-03-03T16:28:07;8.20;99.90
39219;DHT22;24934;52.752;6.964;2023-03-03T16:38:50;7.60;99.90
39219;DHT22;24934;52.752;6.964;2023-03-03T16:41:37;7.50;99.90
39219;DHT22;24934;52.752;6.964;2023-03-03T17:00:54;7.00;99.90
39219;DHT22;24934;52.752;6.964;2023-03-03T17:03:47;6.90;99.90
39219;DHT22;24934;52.752;6.964;2023-03-03T17:06:36;6.80;99.90
39219;DHT22;24934;52.752;6.964;2023-03-03T17:09:21;6.80;99.90
39219;DHT22;24934;52.752;6.964;2023-03-03T17:12:19;6.70;99.90
39219;DHT22;24934;52.752;6.964;2023-03-03T17:17:43;6.50;99.90
39219;DHT22;24934;52.752;6.964;2023-03-03T17:20:31;6.50;99.90
39219;DHT22;24934;52.752;6.964;2023-03-03T17:23:14;6.40;99.90
39219;DHT22;24934;52.752;6.964;2023-03-03T17:28:45;6.30;99.90
39219;DHT22;24934;52.752;6.964;2023-03-03T17:34:41;6.20;99.90
39219;DHT22;24934;52.752;6.964;2023-03-03T17:37:38;6.10;99.90
39219;DHT22;24934;52.752;6.964;2023-03-03T17:42:55;6.00;99.90
39219;DHT22;24934;52.752;6.964;2023-03-03T17:45:23;6.00;99.90
39219;DHT22;24934;52.752;6.964;2023-03-03T17:56:22;5.90;99.90
39219;DHT22;24934;52.752;6.964;2023-03-03T17:59:26;5.90;99.90
39219;DHT22;24934;52.752;6.964;2023-03-03T18:04:57;5.90;99.90
39219;DHT22;24934;52.752;6.964;2023-03-03T18:16:18;5.80;99.90
39219;DHT22;24934;52.752;6.964;2023-03-03T18:19:11;5.80;99.90
39219;DHT22;24934;52.752;6.964;2023-03-03T18:26:50;5.70;99.90
39219;DHT22;24934;52.752;6.964;2023-03-03T18:29:26;5.70;99.90
39219;DHT22;24934;52.752;6.964;2023-03-03T18:34:37;5.70;99.90
39219;DHT22;24934;52.752;6.964;2023-03-03T18:42:41;5.70;99.90
39219;DHT22;24934;52.752;6.964;2023-03-03T18:48:04;5.70;99.90
39219;DHT22;24934;52.752;6.964;2023-03-03T18:50:36;5.70;99.90
39219;DHT22;24934;52.752;6.964;2023-03-03T18:55:43;5.70;99.90
39219;DHT22;24934;52.752;6.964;2023-03-03T19:03:25;5.60;99.90
39219;DHT22;24934;52.752;6.964;2023-03-03T19:05:51;5.60;99.90
39219;DHT22;24934;52.752;6.964;2023-03-03T19:08:25;5.60;99.90
39219;DHT22;24934;52.752;6.964;2023-03-03T19:11:01;5.60;99.90
39219;DHT22;24934;52.752;6.964;2023-03-03T19:16:10;5.60;99.90
39219;DHT22;24934;52.752;6.964;2023-03-03T19:37:57;5.60;99.90
39219;DHT22;24934;52.752;6.964;2023-03-03T19:40:42;5.50;99.90
39219;DHT22;24934;52.752;6.964;2023-03-03T19:52:02;5.50;99.90
39219;DHT22;24934;52.752;6.964;2023-03-03T20:00:46;5.40;99.90
39219;DHT22;24934;52.752;6.964;2023-03-03T20:03:37;5.40;99.90
39219;DHT22;24934;52.752;6.964;2023-03-03T20:06:19;5.30;99.90
39219;DHT22;24934;52.752;6.964;2023-03-03T20:22:46;5.30;99.90
39219;DHT22;24934;52.752;6.964;2023-03-03T20:28:20;5.40;99.90
39219;DHT22;24934;52.752;6.964;2023-03-03T20:31:02;5.40;99.90
39219;DHT22;24934;52.752;6.964;2023-03-03T20:33:43;5.40;99.90
39219;DHT22;24934;52.752;6.964;2023-03-03T20:36:26;5.40;99.90
39219;DHT22;24934;52.752;6.964;2023-03-03T21:05:31;5.40;99.90
39219;DHT22;24934;52.752;6.964;2023-03-03T21:08:02;5.40;99.90
39219;DHT22;24934;52.752;6.964;2023-03-03T21:10:33;5.40;99.90
39219;DHT22;24934;52.752;6.964;2023-03-03T21:16:01;5.40;99.90
39219;DHT22;24934;52.752;6.964;2023-03-03T21:18:27;5.40;99.90
39219;DHT22;24934;52.752;6.964;2023-03-03T21:20:53;5.40;99.90
39219;DHT22;24934;52.752;6.964;2023-03-03T21:23:19;5.40;99.90
39219;DHT22;24934;52.752;6.964;2023-03-03T21:25:52;5.40;99.90
39219;DHT22;24934;52.752;6.964;2023-03-03T21:28:30;5.40;99.90
39219;DHT22;24934;52.752;6.964;2023-03-03T21:31:11;5.30;99.90
39219;DHT22;24934;52.752;6.964;2023-03-03T21:36:06;5.30;99.90
39219;DHT22;24934;52.752;6.964;2023-03-03T21:38:34;5.30;99.90
39219;DHT22;24934;52.752;6.964;2023-03-03T21:41:00;5.30;99.90
39219;DHT22;24934;52.752;6.964;2023-03-03T21:43:35;5.30;99.90
39219;DHT22;24934;52.752;6.964;2023-03-03T21:46:01;5.30;99.90
39219;DHT22;24934;52.752;6.964;2023-03-03T21:48:26;5.30;99.90
39219;DHT22;24934;52.752;6.964;2023-03-03T21:50:52;5.30;99.90
39219;DHT22;24934;52.752;6.964;2023-03-03T21:53:17;5.40;99.90
39219;DHT22;24934;52.752;6.964;2023-03-03T21:55:45;5.40;99.90
39219;DHT22;24934;52.752;6.964;2023-03-03T21:58:16;5.40;99.90
39219;DHT22;24934;52.752;6.964;2023-03-03T22:00:42;5.30;99.90
39219;DHT22;24934;52.752;6.964;2023-03-03T22:03:11;5.40;99.90
39219;DHT22;24934;52.752;6.964;2023-03-03T22:05:38;5.40;99.90
39219;DHT22;24934;52.752;6.964;2023-03-03T22:08:04;5.40;99.90
39219;DHT22;24934;52.752;6.964;2023-03-03T22:10:30;5.40;99.90
39219;DHT22;24934;52.752;6.964;2023-03-03T22:12:55;5.30;99.90
39219;DHT22;24934;52.752;6.964;2023-03-03T22:15:21;5.30;99.90
39219;DHT22;24934;52.752;6.964;2023-03-03T22:17:47;5.30;99.90
39219;DHT22;24934;52.752;6.964;2023-03-03T22:20:13;5.30;99.90
39219;DHT22;24934;52.752;6.964;2023-03-03T22:22:40;5.30;99.90
39219;DHT22;24934;52.752;6.964;2023-03-03T22:25:06;5.30;99.90
39219;DHT22;24934;52.752;6.964;2023-03-03T22:27:32;5.30;99.90
39219;DHT22;24934;52.752;6.964;2023-03-03T22:29:59;5.30;99.90
39219;DHT22;24934;52.752;6.964;2023-03-03T22:32:26;5.40;99.90
39219;DHT22;24934;52.752;6.964;2023-03-03T22:34:54;5.30;99.90
39219;DHT22;24934;52.752;6.964;2023-03-03T22:37:19;5.40;99.90
39219;DHT22;24934;52.752;6.964;2023-03-03T22:39:45;5.40;99.90